sensor_id;sensor_type;location;lat;lon;timestamp;pressure;altitude;pressure_sealevel;temperature;humidity
17521;BME280;8878;-33.370;-70.552;2024-03-08T00:00:45;92167.97;;;20.94;37.07
17521;BME280;8878;-33.370;-70.552;2024-03-08T00:03:15;92171.63;;;20.89;36.97
17521;BME280;8878;-33.370;-70.552;2024-03-08T00:05:44;92176.09;;;20.85;36.68
17521;BME280;8878;-33.370;-70.552;2024-03-08T00:08:14;92175.19;;;20.81;37.51
17521;BME280;8878;-33.370;-70.552;2024-03-08T00:10:43;92179.34;;;20.70;37.35
17521;BME280;8878;-33.370;-70.552;2024-03-08T00:13:12;92188.06;;;20.67;37.44
17521;BME280;8878;-33.370;-70.552;2024-03-08T00:15:44;92192.75;;;20.70;36.95
17521;BME280;8878;-33.370;-70.552;2024-03-08T00:18:13;92194.97;;;20.68;36.96
17521;BME280;8878;-33.370;-70.552;2024-03-08T00:20:43;92205.63;;;20.56;36.97
17521;BME280;8878;-33.370;-70.552;2024-03-08T00:23:13;92205.94;;;20.54;37.06
17521;BME280;8878;-33.370;-70.552;2024-03-08T00:25:42;92207.81;;;20.54;37.50
17521;BME280;8878;-33.370;-70.552;2024-03-08T00:28:12;92209.72;;;20.53;37.30
17521;BME280;8878;-33.370;-70.552;2024-03-08T00:30:45;92211.63;;;20.23;37.51
17521;BME280;8878;-33.370;-70.552;2024-03-08T00:33:15;92206.84;;;20.29;38.02
17521;BME280;8878;-33.370;-70.552;2024-03-08T00:35:44;92214.88;;;20.38;40.47
17521;BME280;8878;-33.370;-70.552;2024-03-08T00:38:14;92222.91;;;20.38;40.94
17521;BME280;8878;-33.370;-70.552;2024-03-08T00:40:45;92223.88;;;20.33;39.86
17521;BME280;8878;-33.370;-70.552;2024-03-08T00:43:15;92227.03;;;20.26;40.72
17521;BME280;8878;-33.370;-70.552;2024-03-08T00:45:46;92230.72;;;20.13;42.35
17521;BME280;8878;-33.370;-70.552;2024-03-08T00:48:15;92223.69;;;20.00;43.72
17521;BME280;8878;-33.370;-70.552;2024-03-08T00:50:45;92227.00;;;19.97;43.64
17521;BME280;8878;-33.370;-70.552;2024-03-08T00:53:14;92222.91;;;19.91;43.91
17521;BME280;8878;-33.370;-70.552;2024-03-08T00:55:43;92232.09;;;19.81;44.09
17521;BME280;8878;-33.370;-70.552;2024-03-08T00:58:14;92229.13;;;19.74;43.61
17521;BME280;8878;-33.370;-70.552;2024-03-08T01:00:45;92237.16;;;19.74;43.14
17521;BME280;8878;-33.370;-70.552;2024-03-08T01:03:14;92239.22;;;19.69;43.21
17521;BME280;8878;-33.370;-70.552;2024-03-08T01:05:44;92239.09;;;19.57;43.50
17521;BME280;8878;-33.370;-70.552;2024-03-08T01:08:13;92241.47;;;19.49;43.86
17521;BME280;8878;-33.370;-70.552;2024-03-08T01:10:42;92237.81;;;19.45;43.88
17521;BME280;8878;-33.370;-70.552;2024-03-08T01:13:12;92237.03;;;19.36;44.64
17521;BME280;8878;-33.370;-70.552;2024-03-08T01:15:41;92235.81;;;19.25;44.74
17521;BME280;8878;-33.370;-70.552;2024-03-08T01:18:12;92243.03;;;19.16;45.24
17521;BME280;8878;-33.370;-70.552;2024-03-08T01:20:42;92242.41;;;19.02;44.87
17521;BME280;8878;-33.370;-70.552;2024-03-08T01:23:11;92240.53;;;18.85;44.47
17521;BME280;8878;-33.370;-70.552;2024-03-08T01:25:41;92251.84;;;18.82;44.44
17521;BME280;8878;-33.370;-70.552;2024-03-08T01:28:10;92249.81;;;18.88;44.55
17521;BME280;8878;-33.370;-70.552;2024-03-08T01:30:40;92247.91;;;18.88;44.71
17521;BME280;8878;-33.370;-70.552;2024-03-08T01:33:11;92250.91;;;18.87;43.94
17521;BME280;8878;-33.370;-70.552;2024-03-08T01:35:41;92253.88;;;18.76;44.24
17521;BME280;8878;-33.370;-70.552;2024-03-08T01:38:10;92249.16;;;18.73;44.62
17521;BME280;8878;-33.370;-70.552;2024-03-08T01:40:40;92248.50;;;18.59;44.61
17521;BME280;8878;-33.370;-70.552;2024-03-08T01:43:19;92248.16;;;18.52;44.78
17521;BME280;8878;-33.370;-70.552;2024-03-08T01:45:49;92251.59;;;18.44;45.99
17521;BME280;8878;-33.370;-70.552;2024-03-08T01:48:21;92263.22;;;18.39;45.82
17521;BME280;8878;-33.370;-70.552;2024-03-08T01:50:50;92261.50;;;18.44;45.32
17521;BME280;8878;-33.370;-70.552;2024-03-08T01:53:22;92255.81;;;18.36;45.03
17521;BME280;8878;-33.370;-70.552;2024-03-08T01:55:55;92256.09;;;18.26;45.51
17521;BME280;8878;-33.370;-70.552;2024-03-08T01:58:28;92261.28;;;18.23;45.67
17521;BME280;8878;-33.370;-70.552;2024-03-08T02:00:58;92256.09;;;18.18;46.76
17521;BME280;8878;-33.370;-70.552;2024-03-08T02:03:29;92256.34;;;18.08;47.55
17521;BME280;8878;-33.370;-70.552;2024-03-08T02:05:59;92253.81;;;18.03;47.10
17521;BME280;8878;-33.370;-70.552;2024-03-08T02:08:28;92254.56;;;17.94;46.75
17521;BME280;8878;-33.370;-70.552;2024-03-08T02:10:59;92246.72;;;17.89;47.51
17521;BME280;8878;-33.370;-70.552;2024-03-08T02:13:29;92252.84;;;17.90;47.73
17521;BME280;8878;-33.370;-70.552;2024-03-08T02:15:59;92256.91;;;17.87;47.52
17521;BME280;8878;-33.370;-70.552;2024-03-08T02:18:31;92251.06;;;17.85;46.40
17521;BME280;8878;-33.370;-70.552;2024-03-08T02:21:04;92253.88;;;17.80;47.07
17521;BME280;8878;-33.370;-70.552;2024-03-08T02:23:35;92246.00;;;17.75;47.83
17521;BME280;8878;-33.370;-70.552;2024-03-08T02:26:05;92257.88;;;17.69;49.44
17521;BME280;8878;-33.370;-70.552;2024-03-08T02:28:34;92249.88;;;17.69;49.19
17521;BME280;8878;-33.370;-70.552;2024-03-08T02:31:04;92257.72;;;17.66;53.71
17521;BME280;8878;-33.370;-70.552;2024-03-08T02:33:35;92260.16;;;17.53;54.93
17521;BME280;8878;-33.370;-70.552;2024-03-08T02:36:07;92257.06;;;17.38;54.06
17521;BME280;8878;-33.370;-70.552;2024-03-08T02:38:36;92254.16;;;17.26;54.47
17521;BME280;8878;-33.370;-70.552;2024-03-08T02:41:07;92246.25;;;17.20;53.88
17521;BME280;8878;-33.370;-70.552;2024-03-08T02:43:37;92248.63;;;17.22;53.65
17521;BME280;8878;-33.370;-70.552;2024-03-08T02:46:08;92254.41;;;17.15;53.89
17521;BME280;8878;-33.370;-70.552;2024-03-08T02:48:37;92256.69;;;17.08;53.99
17521;BME280;8878;-33.370;-70.552;2024-03-08T02:51:09;92251.13;;;16.96;52.56
17521;BME280;8878;-33.370;-70.552;2024-03-08T02:53:40;92248.75;;;16.95;52.34
17521;BME280;8878;-33.370;-70.552;2024-03-08T02:56:10;92249.53;;;16.95;52.77
17521;BME280;8878;-33.370;-70.552;2024-03-08T02:58:43;92247.16;;;16.94;55.35
17521;BME280;8878;-33.370;-70.552;2024-03-08T03:01:15;92246.81;;;16.87;55.18
17521;BME280;8878;-33.370;-70.552;2024-03-08T03:03:47;92242.91;;;16.70;54.14
17521;BME280;8878;-33.370;-70.552;2024-03-08T03:06:19;92235.22;;;16.69;54.15
17521;BME280;8878;-33.370;-70.552;2024-03-08T03:08:49;92239.16;;;16.58;53.08
17521;BME280;8878;-33.370;-70.552;2024-03-08T03:11:18;92239.94;;;16.72;52.96
17521;BME280;8878;-33.370;-70.552;2024-03-08T03:13:47;92242.47;;;16.77;53.59
17521;BME280;8878;-33.370;-70.552;2024-03-08T03:16:20;92250.09;;;16.83;55.18
17521;BME280;8878;-33.370;-70.552;2024-03-08T03:18:49;92243.97;;;16.83;53.65
17521;BME280;8878;-33.370;-70.552;2024-03-08T03:21:20;92252.53;;;16.80;55.75
17521;BME280;8878;-33.370;-70.552;2024-03-08T03:23:50;92245.25;;;16.72;57.37
17521;BME280;8878;-33.370;-70.552;2024-03-08T03:26:19;92254.34;;;16.71;56.02
17521;BME280;8878;-33.370;-70.552;2024-03-08T03:28:49;92252.16;;;16.73;54.42
17521;BME280;8878;-33.370;-70.552;2024-03-08T03:31:18;92242.72;;;16.53;51.01
17521;BME280;8878;-33.370;-70.552;2024-03-08T03:33:50;92253.09;;;16.55;57.93
17521;BME280;8878;-33.370;-70.552;2024-03-08T03:36:22;92251.00;;;16.52;59.97
17521;BME280;8878;-33.370;-70.552;2024-03-08T03:38:51;92246.09;;;16.45;57.93
17521;BME280;8878;-33.370;-70.552;2024-03-08T03:41:31;92242.63;;;16.44;57.48
17521;BME280;8878;-33.370;-70.552;2024-03-08T03:44:01;92255.03;;;16.49;58.61
17521;BME280;8878;-33.370;-70.552;2024-03-08T03:46:30;92254.56;;;16.47;58.85
17521;BME280;8878;-33.370;-70.552;2024-03-08T03:49:00;92254.38;;;16.43;58.55
17521;BME280;8878;-33.370;-70.552;2024-03-08T03:51:32;92254.66;;;16.42;59.74
17521;BME280;8878;-33.370;-70.552;2024-03-08T03:54:01;92250.25;;;16.37;59.14
17521;BME280;8878;-33.370;-70.552;2024-03-08T03:56:32;92252.91;;;16.37;58.93
17521;BME280;8878;-33.370;-70.552;2024-03-08T03:59:01;92248.66;;;16.36;60.84
17521;BME280;8878;-33.370;-70.552;2024-03-08T04:01:30;92252.34;;;16.27;61.05
17521;BME280;8878;-33.370;-70.552;2024-03-08T04:04:00;92247.38;;;16.20;60.09
17521;BME280;8878;-33.370;-70.552;2024-03-08T04:06:31;92244.72;;;16.20;60.63
17521;BME280;8878;-33.370;-70.552;2024-03-08T04:09:01;92248.00;;;16.17;62.38
17521;BME280;8878;-33.370;-70.552;2024-03-08T04:11:31;92250.84;;;16.07;64.28
17521;BME280;8878;-33.370;-70.552;2024-03-08T04:14:01;92248.41;;;15.97;65.88
17521;BME280;8878;-33.370;-70.552;2024-03-08T04:16:30;92246.53;;;15.97;63.22
17521;BME280;8878;-33.370;-70.552;2024-03-08T04:19:00;92244.66;;;15.98;60.12
17521;BME280;8878;-33.370;-70.552;2024-03-08T04:21:33;92236.75;;;15.93;59.39
17521;BME280;8878;-33.370;-70.552;2024-03-08T04:24:02;92236.28;;;15.91;61.57
17521;BME280;8878;-33.370;-70.552;2024-03-08T04:26:32;92231.16;;;15.94;60.58
17521;BME280;8878;-33.370;-70.552;2024-03-08T04:29:02;92229.97;;;15.87;61.50
17521;BME280;8878;-33.370;-70.552;2024-03-08T04:31:32;92227.59;;;15.85;63.32
17521;BME280;8878;-33.370;-70.552;2024-03-08T04:34:01;92222.78;;;15.87;63.59
17521;BME280;8878;-33.370;-70.552;2024-03-08T04:36:33;92210.25;;;15.88;62.35
17521;BME280;8878;-33.370;-70.552;2024-03-08T04:39:03;92212.25;;;15.82;59.40
17521;BME280;8878;-33.370;-70.552;2024-03-08T04:41:32;92208.50;;;15.83;58.50
17521;BME280;8878;-33.370;-70.552;2024-03-08T04:44:02;92202.09;;;15.84;57.04
17521;BME280;8878;-33.370;-70.552;2024-03-08T04:46:32;92201.38;;;15.92;56.97
17521;BME280;8878;-33.370;-70.552;2024-03-08T04:49:02;92198.72;;;15.79;56.18
17521;BME280;8878;-33.370;-70.552;2024-03-08T04:51:34;92196.28;;;15.82;56.60
17521;BME280;8878;-33.370;-70.552;2024-03-08T04:54:04;92199.22;;;15.94;57.98
17521;BME280;8878;-33.370;-70.552;2024-03-08T04:56:33;92197.84;;;15.97;57.35
17521;BME280;8878;-33.370;-70.552;2024-03-08T04:59:03;92189.38;;;15.81;56.99
17521;BME280;8878;-33.370;-70.552;2024-03-08T05:01:34;92195.19;;;15.83;53.86
17521;BME280;8878;-33.370;-70.552;2024-03-08T05:04:04;92191.53;;;15.93;50.87
17521;BME280;8878;-33.370;-70.552;2024-03-08T05:06:36;92187.09;;;16.02;50.93
17521;BME280;8878;-33.370;-70.552;2024-03-08T05:09:05;92182.66;;;16.11;52.62
17521;BME280;8878;-33.370;-70.552;2024-03-08T05:11:40;92178.28;;;16.15;54.19
17521;BME280;8878;-33.370;-70.552;2024-03-08T05:14:09;92186.69;;;15.95;55.27
17521;BME280;8878;-33.370;-70.552;2024-03-08T05:16:40;92190.97;;;15.69;54.99
17521;BME280;8878;-33.370;-70.552;2024-03-08T05:19:10;92193.69;;;15.63;52.91
17521;BME280;8878;-33.370;-70.552;2024-03-08T05:21:41;92192.63;;;15.64;51.46
17521;BME280;8878;-33.370;-70.552;2024-03-08T05:24:11;92192.44;;;15.61;49.96
17521;BME280;8878;-33.370;-70.552;2024-03-08T05:26:41;92198.03;;;15.59;51.61
17521;BME280;8878;-33.370;-70.552;2024-03-08T05:29:11;92207.75;;;15.50;51.76
17521;BME280;8878;-33.370;-70.552;2024-03-08T05:31:46;92216.19;;;15.39;51.21
17521;BME280;8878;-33.370;-70.552;2024-03-08T05:34:17;92217.03;;;15.20;50.84
17521;BME280;8878;-33.370;-70.552;2024-03-08T05:36:48;92222.16;;;15.17;50.82
17521;BME280;8878;-33.370;-70.552;2024-03-08T05:39:18;92227.84;;;15.10;47.94
17521;BME280;8878;-33.370;-70.552;2024-03-08T05:41:48;92219.75;;;15.02;45.44
17521;BME280;8878;-33.370;-70.552;2024-03-08T05:44:17;92222.91;;;15.04;45.66
17521;BME280;8878;-33.370;-70.552;2024-03-08T05:46:47;92225.34;;;15.00;42.11
17521;BME280;8878;-33.370;-70.552;2024-03-08T05:49:17;92229.88;;;15.00;42.56
17521;BME280;8878;-33.370;-70.552;2024-03-08T05:51:48;92225.06;;;15.02;41.93
17521;BME280;8878;-33.370;-70.552;2024-03-08T05:54:18;92226.56;;;15.08;43.31
17521;BME280;8878;-33.370;-70.552;2024-03-08T05:56:49;92215.63;;;15.09;42.47
17521;BME280;8878;-33.370;-70.552;2024-03-08T05:59:19;92210.34;;;15.23;43.21
17521;BME280;8878;-33.370;-70.552;2024-03-08T06:01:50;92211.16;;;15.23;43.60
17521;BME280;8878;-33.370;-70.552;2024-03-08T06:04:19;92205.72;;;15.15;43.56
17521;BME280;8878;-33.370;-70.552;2024-03-08T06:06:50;92197.31;;;15.08;43.61
17521;BME280;8878;-33.370;-70.552;2024-03-08T06:09:22;92192.41;;;15.15;44.82
17521;BME280;8878;-33.370;-70.552;2024-03-08T06:11:52;92188.94;;;15.01;45.84
17521;BME280;8878;-33.370;-70.552;2024-03-08T06:14:21;92184.59;;;14.91;46.81
17521;BME280;8878;-33.370;-70.552;2024-03-08T06:16:51;92177.34;;;14.97;46.61
17521;BME280;8878;-33.370;-70.552;2024-03-08T06:19:20;92174.28;;;15.03;48.51
17521;BME280;8878;-33.370;-70.552;2024-03-08T06:21:51;92163.75;;;14.98;47.14
17521;BME280;8878;-33.370;-70.552;2024-03-08T06:24:21;92159.03;;;14.95;46.32
17521;BME280;8878;-33.370;-70.552;2024-03-08T06:26:50;92154.66;;;14.85;46.27
17521;BME280;8878;-33.370;-70.552;2024-03-08T06:29:20;92160.72;;;14.72;46.80
17521;BME280;8878;-33.370;-70.552;2024-03-08T06:31:49;92148.50;;;14.71;47.35
17521;BME280;8878;-33.370;-70.552;2024-03-08T06:34:20;92156.09;;;14.78;47.63
17521;BME280;8878;-33.370;-70.552;2024-03-08T06:36:51;92147.56;;;14.81;47.61
17521;BME280;8878;-33.370;-70.552;2024-03-08T06:39:27;92137.47;;;14.64;48.47
17521;BME280;8878;-33.370;-70.552;2024-03-08T06:41:58;92128.16;;;14.67;50.12
17521;BME280;8878;-33.370;-70.552;2024-03-08T06:44:28;92127.63;;;14.83;50.49
17521;BME280;8878;-33.370;-70.552;2024-03-08T06:46:57;92129.91;;;14.90;51.22
17521;BME280;8878;-33.370;-70.552;2024-03-08T06:49:27;92122.41;;;14.92;49.58
17521;BME280;8878;-33.370;-70.552;2024-03-08T06:51:58;92117.81;;;14.98;49.45
17521;BME280;8878;-33.370;-70.552;2024-03-08T06:54:27;92122.34;;;14.97;48.99
17521;BME280;8878;-33.370;-70.552;2024-03-08T06:56:57;92131.00;;;15.03;50.79
17521;BME280;8878;-33.370;-70.552;2024-03-08T06:59:27;92134.16;;;15.05;50.47
17521;BME280;8878;-33.370;-70.552;2024-03-08T07:01:56;92127.84;;;15.01;49.75
17521;BME280;8878;-33.370;-70.552;2024-03-08T07:04:26;92137.66;;;15.00;48.87
17521;BME280;8878;-33.370;-70.552;2024-03-08T07:06:58;92136.31;;;15.03;49.47
17521;BME280;8878;-33.370;-70.552;2024-03-08T07:09:29;92136.31;;;15.03;50.30
17521;BME280;8878;-33.370;-70.552;2024-03-08T07:11:59;92130.03;;;14.99;51.58
17521;BME280;8878;-33.370;-70.552;2024-03-08T07:14:28;92138.25;;;14.83;51.28
17521;BME280;8878;-33.370;-70.552;2024-03-08T07:16:58;92137.41;;;14.69;53.00
17521;BME280;8878;-33.370;-70.552;2024-03-08T07:19:27;92148.78;;;14.56;50.12
17521;BME280;8878;-33.370;-70.552;2024-03-08T07:21:58;92149.34;;;14.53;52.28
17521;BME280;8878;-33.370;-70.552;2024-03-08T07:24:30;92139.59;;;14.48;49.99
17521;BME280;8878;-33.370;-70.552;2024-03-08T07:27:17;92143.47;;;14.56;52.31
17521;BME280;8878;-33.370;-70.552;2024-03-08T07:29:46;92144.22;;;14.57;50.24
17521;BME280;8878;-33.370;-70.552;2024-03-08T07:32:16;92138.88;;;14.43;51.32
17521;BME280;8878;-33.370;-70.552;2024-03-08T07:34:49;92140.88;;;14.51;51.04
17521;BME280;8878;-33.370;-70.552;2024-03-08T07:37:20;92141.66;;;14.52;50.18
17521;BME280;8878;-33.370;-70.552;2024-03-08T07:39:50;92136.34;;;14.52;50.90
17521;BME280;8878;-33.370;-70.552;2024-03-08T07:42:19;92147.19;;;14.55;52.89
17521;BME280;8878;-33.370;-70.552;2024-03-08T07:44:50;92144.91;;;14.48;55.05
17521;BME280;8878;-33.370;-70.552;2024-03-08T07:47:19;92149.44;;;14.48;54.54
17521;BME280;8878;-33.370;-70.552;2024-03-08T07:49:49;92157.44;;;14.43;55.41
17521;BME280;8878;-33.370;-70.552;2024-03-08T07:52:20;92159.44;;;14.32;55.65
17521;BME280;8878;-33.370;-70.552;2024-03-08T07:54:50;92154.72;;;14.29;55.32
17521;BME280;8878;-33.370;-70.552;2024-03-08T07:57:20;92158.44;;;14.28;56.64
17521;BME280;8878;-33.370;-70.552;2024-03-08T07:59:49;92166.47;;;14.23;55.19
17521;BME280;8878;-33.370;-70.552;2024-03-08T08:02:19;92155.66;;;14.20;55.53
17521;BME280;8878;-33.370;-70.552;2024-03-08T08:04:48;92156.03;;;14.13;55.09
17521;BME280;8878;-33.370;-70.552;2024-03-08T08:07:19;92168.50;;;14.13;54.76
17521;BME280;8878;-33.370;-70.552;2024-03-08T08:09:49;92154.44;;;14.12;55.96
17521;BME280;8878;-33.370;-70.552;2024-03-08T08:12:19;92158.00;;;14.02;57.29
17521;BME280;8878;-33.370;-70.552;2024-03-08T08:14:48;92157.00;;;13.98;57.90
17521;BME280;8878;-33.370;-70.552;2024-03-08T08:17:18;92151.19;;;13.96;57.29
17521;BME280;8878;-33.370;-70.552;2024-03-08T08:19:47;92142.97;;;13.98;56.79
17521;BME280;8878;-33.370;-70.552;2024-03-08T08:22:19;92141.66;;;13.95;57.71
17521;BME280;8878;-33.370;-70.552;2024-03-08T08:24:49;92147.56;;;13.92;58.25
17521;BME280;8878;-33.370;-70.552;2024-03-08T08:27:19;92140.78;;;13.81;59.97
17521;BME280;8878;-33.370;-70.552;2024-03-08T08:29:48;92138.72;;;13.78;58.42
17521;BME280;8878;-33.370;-70.552;2024-03-08T08:32:18;92131.31;;;13.75;56.22
17521;BME280;8878;-33.370;-70.552;2024-03-08T08:34:47;92136.06;;;13.78;58.94
17521;BME280;8878;-33.370;-70.552;2024-03-08T08:37:19;92129.47;;;13.76;61.78
17521;BME280;8878;-33.370;-70.552;2024-03-08T08:39:50;92125.75;;;13.77;61.83
17521;BME280;8878;-33.370;-70.552;2024-03-08T08:42:20;92134.97;;;13.79;60.13
17521;BME280;8878;-33.370;-70.552;2024-03-08T08:44:49;92128.16;;;13.73;58.30
17521;BME280;8878;-33.370;-70.552;2024-03-08T08:47:19;92113.56;;;13.76;58.56
17521;BME280;8878;-33.370;-70.552;2024-03-08T08:49:48;92125.34;;;13.64;56.79
17521;BME280;8878;-33.370;-70.552;2024-03-08T08:52:19;92116.28;;;13.70;56.71
17521;BME280;8878;-33.370;-70.552;2024-03-08T08:54:50;92121.16;;;13.82;59.36
17521;BME280;8878;-33.370;-70.552;2024-03-08T08:57:19;92115.06;;;13.82;60.19
17521;BME280;8878;-33.370;-70.552;2024-03-08T08:59:48;92118.78;;;13.81;59.82
17521;BME280;8878;-33.370;-70.552;2024-03-08T09:02:18;92120.19;;;13.54;59.50
17521;BME280;8878;-33.370;-70.552;2024-03-08T09:04:48;92130.44;;;13.37;60.00
17521;BME280;8878;-33.370;-70.552;2024-03-08T09:07:20;92124.88;;;13.39;60.14
17521;BME280;8878;-33.370;-70.552;2024-03-08T09:09:49;92126.91;;;13.47;59.78
17521;BME280;8878;-33.370;-70.552;2024-03-08T09:12:19;92121.72;;;13.37;60.27
17521;BME280;8878;-33.370;-70.552;2024-03-08T09:14:48;92132.88;;;13.33;59.81
17521;BME280;8878;-33.370;-70.552;2024-03-08T09:17:17;92129.47;;;13.52;61.30
17521;BME280;8878;-33.370;-70.552;2024-03-08T09:19:47;92134.69;;;13.62;61.52
17521;BME280;8878;-33.370;-70.552;2024-03-08T09:22:17;92131.94;;;13.67;61.43
17521;BME280;8878;-33.370;-70.552;2024-03-08T09:24:48;92129.81;;;13.69;62.47
17521;BME280;8878;-33.370;-70.552;2024-03-08T09:27:17;92134.69;;;13.62;62.70
17521;BME280;8878;-33.370;-70.552;2024-03-08T09:29:47;92122.50;;;13.61;64.56
17521;BME280;8878;-33.370;-70.552;2024-03-08T09:32:16;92137.94;;;13.54;60.98
17521;BME280;8878;-33.370;-70.552;2024-03-08T09:34:46;92133.94;;;13.56;58.74
17521;BME280;8878;-33.370;-70.552;2024-03-08T09:37:15;92133.66;;;13.58;66.59
17521;BME280;8878;-33.370;-70.552;2024-03-08T09:39:47;92126.34;;;13.50;65.64
17521;BME280;8878;-33.370;-70.552;2024-03-08T09:42:17;92134.41;;;13.40;64.47
17521;BME280;8878;-33.370;-70.552;2024-03-08T09:44:47;92150.13;;;13.31;64.45
17521;BME280;8878;-33.370;-70.552;2024-03-08T09:47:18;92160.00;;;13.25;64.47
17521;BME280;8878;-33.370;-70.552;2024-03-08T09:49:51;92156.81;;;13.28;64.51
17521;BME280;8878;-33.370;-70.552;2024-03-08T09:52:21;92160.22;;;13.29;64.77
17521;BME280;8878;-33.370;-70.552;2024-03-08T09:54:52;92163.19;;;13.22;66.08
17521;BME280;8878;-33.370;-70.552;2024-03-08T09:57:22;92172.50;;;13.20;64.54
17521;BME280;8878;-33.370;-70.552;2024-03-08T09:59:51;92176.22;;;13.19;64.60
17521;BME280;8878;-33.370;-70.552;2024-03-08T10:02:20;92178.16;;;13.13;66.31
17521;BME280;8878;-33.370;-70.552;2024-03-08T10:04:52;92188.28;;;13.01;63.58
17521;BME280;8878;-33.370;-70.552;2024-03-08T10:07:21;92204.13;;;13.06;64.27
17521;BME280;8878;-33.370;-70.552;2024-03-08T10:09:54;92206.22;;;13.09;64.53
17521;BME280;8878;-33.370;-70.552;2024-03-08T10:12:25;92215.94;;;12.90;64.33
17521;BME280;8878;-33.370;-70.552;2024-03-08T10:14:56;92217.22;;;12.59;62.64
17521;BME280;8878;-33.370;-70.552;2024-03-08T10:17:28;92223.16;;;12.40;57.79
17521;BME280;8878;-33.370;-70.552;2024-03-08T10:19:59;92228.47;;;12.40;55.45
17521;BME280;8878;-33.370;-70.552;2024-03-08T10:22:30;92240.59;;;12.46;55.41
17521;BME280;8878;-33.370;-70.552;2024-03-08T10:25:01;92244.28;;;12.45;56.25
17521;BME280;8878;-33.370;-70.552;2024-03-08T10:27:32;92246.53;;;12.67;56.69
17521;BME280;8878;-33.370;-70.552;2024-03-08T10:30:02;92241.94;;;12.83;60.32
17521;BME280;8878;-33.370;-70.552;2024-03-08T10:32:31;92247.59;;;12.71;60.03
17521;BME280;8878;-33.370;-70.552;2024-03-08T10:35:01;92251.13;;;12.51;60.28
17521;BME280;8878;-33.370;-70.552;2024-03-08T10:37:30;92248.50;;;12.51;60.39
17521;BME280;8878;-33.370;-70.552;2024-03-08T10:40:05;92252.94;;;12.61;64.75
17521;BME280;8878;-33.370;-70.552;2024-03-08T10:42:40;92252.69;;;12.57;66.42
17521;BME280;8878;-33.370;-70.552;2024-03-08T10:45:15;92258.00;;;12.52;67.78
17521;BME280;8878;-33.370;-70.552;2024-03-08T10:47:48;92270.22;;;12.48;67.19
17521;BME280;8878;-33.370;-70.552;2024-03-08T10:50:19;92269.19;;;12.44;67.84
17521;BME280;8878;-33.370;-70.552;2024-03-08T10:52:50;92276.06;;;12.45;67.08
17521;BME280;8878;-33.370;-70.552;2024-03-08T10:55:22;92274.84;;;12.28;65.70
17521;BME280;8878;-33.370;-70.552;2024-03-08T10:57:53;92279.81;;;12.34;67.97
17521;BME280;8878;-33.370;-70.552;2024-03-08T11:00:23;92282.16;;;12.41;65.84
17521;BME280;8878;-33.370;-70.552;2024-03-08T11:02:54;92281.59;;;12.49;67.23
17521;BME280;8878;-33.370;-70.552;2024-03-08T11:05:37;92283.44;;;12.48;68.39
17521;BME280;8878;-33.370;-70.552;2024-03-08T11:08:17;92279.34;;;12.27;67.51
17521;BME280;8878;-33.370;-70.552;2024-03-08T11:10:52;92268.25;;;12.15;67.83
17521;BME280;8878;-33.370;-70.552;2024-03-08T11:13:35;92263.97;;;12.34;67.79
17521;BME280;8878;-33.370;-70.552;2024-03-08T11:16:08;92266.25;;;12.46;67.82
17521;BME280;8878;-33.370;-70.552;2024-03-08T11:18:38;92259.16;;;12.41;70.38
17521;BME280;8878;-33.370;-70.552;2024-03-08T11:21:09;92260.75;;;12.42;70.46
17521;BME280;8878;-33.370;-70.552;2024-03-08T11:23:41;92259.63;;;12.48;69.49
17521;BME280;8878;-33.370;-70.552;2024-03-08T11:26:24;92254.22;;;12.69;68.72
17521;BME280;8878;-33.370;-70.552;2024-03-08T11:28:54;92249.34;;;12.81;68.28
17521;BME280;8878;-33.370;-70.552;2024-03-08T11:31:24;92243.47;;;12.89;67.43
17521;BME280;8878;-33.370;-70.552;2024-03-08T11:33:55;92241.28;;;12.96;66.70
17521;BME280;8878;-33.370;-70.552;2024-03-08T11:36:25;92244.69;;;13.02;66.40
17521;BME280;8878;-33.370;-70.552;2024-03-08T11:38:54;92236.72;;;13.02;65.76
17521;BME280;8878;-33.370;-70.552;2024-03-08T11:41:32;92231.59;;;13.15;65.72
17521;BME280;8878;-33.370;-70.552;2024-03-08T11:44:05;92226.16;;;13.36;63.93
17521;BME280;8878;-33.370;-70.552;2024-03-08T11:46:36;92236.28;;;13.52;63.31
17521;BME280;8878;-33.370;-70.552;2024-03-08T11:49:09;92216.28;;;13.65;62.44
17521;BME280;8878;-33.370;-70.552;2024-03-08T11:51:38;92214.75;;;13.83;61.99
17521;BME280;8878;-33.370;-70.552;2024-03-08T11:54:12;92229.19;;;13.95;60.41
17521;BME280;8878;-33.370;-70.552;2024-03-08T11:56:44;92221.50;;;13.94;59.98
17521;BME280;8878;-33.370;-70.552;2024-03-08T11:59:14;92224.56;;;14.06;60.47
17521;BME280;8878;-33.370;-70.552;2024-03-08T12:01:44;92221.47;;;14.18;60.15
17521;BME280;8878;-33.370;-70.552;2024-03-08T12:04:25;92220.91;;;14.21;60.24
17521;BME280;8878;-33.370;-70.552;2024-03-08T12:06:54;92223.63;;;14.16;61.29
17521;BME280;8878;-33.370;-70.552;2024-03-08T12:09:22;92226.94;;;14.26;59.47
17521;BME280;8878;-33.370;-70.552;2024-03-08T12:11:54;92238.66;;;14.44;59.78
17521;BME280;8878;-33.370;-70.552;2024-03-08T12:14:23;92245.13;;;14.57;57.26
17521;BME280;8878;-33.370;-70.552;2024-03-08T12:16:51;92250.94;;;14.77;54.02
17521;BME280;8878;-33.370;-70.552;2024-03-08T12:19:21;92254.50;;;14.86;51.20
17521;BME280;8878;-33.370;-70.552;2024-03-08T12:21:50;92260.53;;;14.92;50.27
17521;BME280;8878;-33.370;-70.552;2024-03-08T12:24:20;92255.94;;;14.79;48.24
17521;BME280;8878;-33.370;-70.552;2024-03-08T12:26:50;92256.13;;;14.69;48.33
17521;BME280;8878;-33.370;-70.552;2024-03-08T12:29:23;92257.38;;;14.71;47.71
17521;BME280;8878;-33.370;-70.552;2024-03-08T12:31:55;92259.63;;;14.83;48.93
17521;BME280;8878;-33.370;-70.552;2024-03-08T12:34:28;92257.09;;;14.73;48.34
17521;BME280;8878;-33.370;-70.552;2024-03-08T12:36:59;92255.41;;;14.63;47.74
17521;BME280;8878;-33.370;-70.552;2024-03-08T12:39:29;92247.28;;;14.73;48.32
17521;BME280;8878;-33.370;-70.552;2024-03-08T12:42:00;92252.16;;;14.66;50.50
17521;BME280;8878;-33.370;-70.552;2024-03-08T12:44:31;92251.44;;;14.61;50.77
17521;BME280;8878;-33.370;-70.552;2024-03-08T12:47:00;92248.09;;;14.55;50.16
17521;BME280;8878;-33.370;-70.552;2024-03-08T12:49:30;92240.81;;;14.61;50.78
17521;BME280;8878;-33.370;-70.552;2024-03-08T12:51:59;92243.47;;;14.79;51.14
17521;BME280;8878;-33.370;-70.552;2024-03-08T12:54:29;92235.19;;;15.00;51.17
17521;BME280;8878;-33.370;-70.552;2024-03-08T12:56:58;92228.03;;;15.14;50.95